sensor_id;sensor_type;location;lat;lon;timestamp;pressure;altitude;pressure_sealevel;temperature;humidity
51315;BME280;65787;59.922;10.742;2023-05-11T00:00:29;100964.97;;;19.90;27.24
51315;BME280;65787;59.922;10.742;2023-05-11T00:02:54;100962.25;;;19.90;27.21
51315;BME280;65787;59.922;10.742;2023-05-11T00:05:19;100965.84;;;19.79;27.16
51315;BME280;65787;59.922;10.742;2023-05-11T00:07:45;100971.06;;;19.68;27.37
51315;BME280;65787;59.922;10.742;2023-05-11T00:10:10;100976.91;;;19.60;27.51
51315;BME280;65787;59.922;10.742;2023-05-11T00:12:35;100978.44;;;19.56;27.70
51315;BME280;65787;59.922;10.742;2023-05-11T00:15:01;100976.31;;;19.58;27.24
51315;BME280;65787;59.922;10.742;2023-05-11T00:17:27;100977.13;;;19.59;27.64
51315;BME280;65787;59.922;10.742;2023-05-11T00:19:52;100972.91;;;19.51;27.19
51315;BME280;65787;59.922;10.742;2023-05-11T00:22:17;100980.13;;;19.45;27.49
51315;BME280;65787;59.922;10.742;2023-05-11T00:24:43;100982.63;;;19.47;27.60
51315;BME280;65787;59.922;10.742;2023-05-11T00:27:08;100978.22;;;19.46;27.74
51315;BME280;65787;59.922;10.742;2023-05-11T00:29:33;100972.44;;;19.42;27.35
51315;BME280;65787;59.922;10.742;2023-05-11T00:31:59;100977.28;;;19.40;27.83
51315;BME280;65787;59.922;10.742;2023-05-11T00:34:24;100973.88;;;19.33;27.87
51315;BME280;65787;59.922;10.742;2023-05-11T00:36:49;100972.34;;;19.25;27.78
51315;BME280;65787;59.922;10.742;2023-05-11T00:39:15;100980.88;;;19.17;27.59
51315;BME280;65787;59.922;10.742;2023-05-11T00:41:41;100983.59;;;19.05;28.30
51315;BME280;65787;59.922;10.742;2023-05-11T00:44:06;100976.88;;;19.08;28.05
51315;BME280;65787;59.922;10.742;2023-05-11T00:46:32;100985.97;;;19.02;28.10
51315;BME280;65787;59.922;10.742;2023-05-11T00:48:57;100990.81;;;19.00;27.71
51315;BME280;65787;59.922;10.742;2023-05-11T00:51:23;100980.06;;;18.93;28.17
51315;BME280;65787;59.922;10.742;2023-05-11T00:53:48;100983.47;;;18.88;28.23
51315;BME280;65787;59.922;10.742;2023-05-11T00:56:14;100984.22;;;18.84;28.19
51315;BME280;65787;59.922;10.742;2023-05-11T00:58:40;100992.81;;;18.92;27.66
51315;BME280;65787;59.922;10.742;2023-05-11T01:01:05;100984.44;;;18.94;28.00
51315;BME280;65787;59.922;10.742;2023-05-11T01:03:31;100990.38;;;18.91;28.14
51315;BME280;65787;59.922;10.742;2023-05-11T01:06:15;100984.78;;;18.86;28.29
51315;BME280;65787;59.922;10.742;2023-05-11T01:08:47;100984.28;;;18.77;27.95
51315;BME280;65787;59.922;10.742;2023-05-11T01:11:29;100987.00;;;18.65;28.50
51315;BME280;65787;59.922;10.742;2023-05-11T01:14:14;100995.63;;;18.62;28.07
51315;BME280;65787;59.922;10.742;2023-05-11T01:16:41;100996.91;;;18.60;28.44
51315;BME280;65787;59.922;10.742;2023-05-11T01:19:17;100992.44;;;18.65;28.29
51315;BME280;65787;59.922;10.742;2023-05-11T01:21:45;100996.78;;;18.66;28.10
51315;BME280;65787;59.922;10.742;2023-05-11T01:27:30;101001.66;;;18.64;28.13
51315;BME280;65787;59.922;10.742;2023-05-11T01:32:17;101004.34;;;18.52;28.09
51315;BME280;65787;59.922;10.742;2023-05-11T01:34:43;101012.72;;;18.39;28.77
51315;BME280;65787;59.922;10.742;2023-05-11T01:37:13;101006.69;;;18.37;28.61
51315;BME280;65787;59.922;10.742;2023-05-11T01:39:42;101004.19;;;18.35;28.31
51315;BME280;65787;59.922;10.742;2023-05-11T01:42:10;101009.88;;;18.34;28.79
51315;BME280;65787;59.922;10.742;2023-05-11T01:44:38;101014.94;;;18.30;28.99
51315;BME280;65787;59.922;10.742;2023-05-11T01:47:05;101003.69;;;18.27;28.87
51315;BME280;65787;59.922;10.742;2023-05-11T01:49:32;101009.34;;;18.25;29.11
51315;BME280;65787;59.922;10.742;2023-05-11T01:52:00;101015.88;;;18.24;28.67
51315;BME280;65787;59.922;10.742;2023-05-11T01:54:27;101018.44;;;18.19;28.93
51315;BME280;65787;59.922;10.742;2023-05-11T01:56:53;101018.06;;;18.15;28.98
51315;BME280;65787;59.922;10.742;2023-05-11T01:59:19;101017.25;;;18.15;28.61
51315;BME280;65787;59.922;10.742;2023-05-11T02:01:45;101022.47;;;18.16;28.69
51315;BME280;65787;59.922;10.742;2023-05-11T02:04:11;101026.16;;;18.22;28.30
51315;BME280;65787;59.922;10.742;2023-05-11T02:06:37;101027.66;;;18.18;29.01
51315;BME280;65787;59.922;10.742;2023-05-11T02:09:04;101027.78;;;18.23;28.65
51315;BME280;65787;59.922;10.742;2023-05-11T02:11:30;101035.44;;;18.14;28.75
51315;BME280;65787;59.922;10.742;2023-05-11T02:13:56;101035.69;;;18.13;29.06
51315;BME280;65787;59.922;10.742;2023-05-11T02:16:22;101033.25;;;18.05;28.83
51315;BME280;65787;59.922;10.742;2023-05-11T02:18:48;101031.47;;;17.98;29.46
51315;BME280;65787;59.922;10.742;2023-05-11T02:21:14;101033.00;;;17.94;29.22
51315;BME280;65787;59.922;10.742;2023-05-11T02:23:40;101034.88;;;17.94;29.19
51315;BME280;65787;59.922;10.742;2023-05-11T02:26:06;101034.50;;;17.90;29.25
51315;BME280;65787;59.922;10.742;2023-05-11T02:28:32;101034.16;;;17.87;29.24
51315;BME280;65787;59.922;10.742;2023-05-11T02:30:59;101027.03;;;17.86;29.00
51315;BME280;65787;59.922;10.742;2023-05-11T02:33:32;101029.06;;;17.90;29.19
51315;BME280;65787;59.922;10.742;2023-05-11T02:35:58;101032.03;;;17.89;29.09
51315;BME280;65787;59.922;10.742;2023-05-11T02:38:24;101029.06;;;17.90;29.43
51315;BME280;65787;59.922;10.742;2023-05-11T02:40:54;101035.34;;;17.91;29.48
51315;BME280;65787;59.922;10.742;2023-05-11T02:43:23;101029.22;;;17.95;29.14
51315;BME280;65787;59.922;10.742;2023-05-11T02:45:49;101020.97;;;18.02;29.30
51315;BME280;65787;59.922;10.742;2023-05-11T02:48:26;101023.31;;;17.98;29.71
51315;BME280;65787;59.922;10.742;2023-05-11T02:50:54;101018.84;;;18.04;29.00
51315;BME280;65787;59.922;10.742;2023-05-11T02:53:19;101022.78;;;18.08;29.22
51315;BME280;65787;59.922;10.742;2023-05-11T02:55:47;101033.34;;;18.16;29.40
51315;BME280;65787;59.922;10.742;2023-05-11T02:58:12;101030.72;;;18.22;29.48
51315;BME280;65787;59.922;10.742;2023-05-11T03:00:38;101035.50;;;18.26;29.18
51315;BME280;65787;59.922;10.742;2023-05-11T03:03:03;101029.56;;;18.29;28.83
51315;BME280;65787;59.922;10.742;2023-05-11T03:05:31;101035.91;;;18.42;28.88
51315;BME280;65787;59.922;10.742;2023-05-11T03:07:56;101029.06;;;18.51;28.59
51315;BME280;65787;59.922;10.742;2023-05-11T03:10:23;101023.91;;;18.61;28.73
51315;BME280;65787;59.922;10.742;2023-05-11T03:12:50;101030.88;;;18.69;28.86
51315;BME280;65787;59.922;10.742;2023-05-11T03:15:15;101031.34;;;18.77;28.40
51315;BME280;65787;59.922;10.742;2023-05-11T03:17:41;101029.97;;;18.87;28.32
51315;BME280;65787;59.922;10.742;2023-05-11T03:20:07;101027.38;;;18.92;28.65
51315;BME280;65787;59.922;10.742;2023-05-11T03:22:34;101025.84;;;18.96;28.50
51315;BME280;65787;59.922;10.742;2023-05-11T03:25:01;101026.34;;;19.05;28.08
51315;BME280;65787;59.922;10.742;2023-05-11T03:27:27;101030.00;;;19.10;28.12
51315;BME280;65787;59.922;10.742;2023-05-11T03:29:53;101029.31;;;19.15;28.30
51315;BME280;65787;59.922;10.742;2023-05-11T03:32:19;101038.53;;;19.26;27.93
51315;BME280;65787;59.922;10.742;2023-05-11T03:34:45;101042.53;;;19.35;27.57
51315;BME280;65787;59.922;10.742;2023-05-11T03:37:11;101039.94;;;19.40;27.89
51315;BME280;65787;59.922;10.742;2023-05-11T03:39:37;101038.38;;;19.44;28.02
51315;BME280;65787;59.922;10.742;2023-05-11T03:42:03;101043.97;;;19.49;27.37
51315;BME280;65787;59.922;10.742;2023-05-11T03:44:30;101047.38;;;19.57;27.71
51315;BME280;65787;59.922;10.742;2023-05-11T03:46:56;101046.66;;;19.61;27.64
51315;BME280;65787;59.922;10.742;2023-05-11T03:49:21;101039.44;;;19.67;27.37
51315;BME280;65787;59.922;10.742;2023-05-11T03:51:47;101044.78;;;19.73;27.21
51315;BME280;65787;59.922;10.742;2023-05-11T03:54:13;101047.84;;;19.77;27.37
51315;BME280;65787;59.922;10.742;2023-05-11T03:56:38;101049.25;;;19.80;27.19
51315;BME280;65787;59.922;10.742;2023-05-11T03:59:04;101056.72;;;19.84;27.22
51315;BME280;65787;59.922;10.742;2023-05-11T04:01:30;101057.19;;;19.93;27.35
51315;BME280;65787;59.922;10.742;2023-05-11T04:03:56;101054.81;;;19.97;27.53
51315;BME280;65787;59.922;10.742;2023-05-11T04:06:21;101055.97;;;20.01;27.29
51315;BME280;65787;59.922;10.742;2023-05-11T04:08:46;101058.19;;;20.04;26.99
51315;BME280;65787;59.922;10.742;2023-05-11T04:11:11;101055.81;;;20.07;26.96
51315;BME280;65787;59.922;10.742;2023-05-11T04:13:37;101053.19;;;20.13;27.15
51315;BME280;65787;59.922;10.742;2023-05-11T04:16:02;101061.50;;;20.18;27.07
51315;BME280;65787;59.922;10.742;2023-05-11T04:18:27;101060.91;;;20.16;27.12
51315;BME280;65787;59.922;10.742;2023-05-11T04:20:53;101067.75;;;20.18;27.17
51315;BME280;65787;59.922;10.742;2023-05-11T04:23:18;101067.75;;;20.18;27.27
51315;BME280;65787;59.922;10.742;2023-05-11T04:25:44;101059.69;;;20.23;27.32
51315;BME280;65787;59.922;10.742;2023-05-11T04:28:09;101069.28;;;20.26;27.17
51315;BME280;65787;59.922;10.742;2023-05-11T04:30:35;101072.69;;;20.33;27.02
51315;BME280;65787;59.922;10.742;2023-05-11T04:33:00;101067.66;;;20.42;26.92
51315;BME280;65787;59.922;10.742;2023-05-11T04:35:25;101070.97;;;20.44;26.69
51315;BME280;65787;59.922;10.742;2023-05-11T04:37:51;101065.19;;;20.40;27.15
51315;BME280;65787;59.922;10.742;2023-05-11T04:40:16;101065.03;;;20.47;26.89
51315;BME280;65787;59.922;10.742;2023-05-11T04:42:41;101065.09;;;20.52;26.65
51315;BME280;65787;59.922;10.742;2023-05-11T04:45:07;101062.72;;;20.56;26.90
51315;BME280;65787;59.922;10.742;2023-05-11T04:47:33;101073.41;;;20.57;26.86
51315;BME280;65787;59.922;10.742;2023-05-11T04:49:58;101074.22;;;20.58;26.94
51315;BME280;65787;59.922;10.742;2023-05-11T04:52:24;101075.06;;;20.58;26.78
51315;BME280;65787;59.922;10.742;2023-05-11T04:54:49;101068.75;;;20.58;26.92
51315;BME280;65787;59.922;10.742;2023-05-11T04:57:15;101075.69;;;20.60;26.86
51315;BME280;65787;59.922;10.742;2023-05-11T04:59:40;101076.34;;;20.67;26.96
51315;BME280;65787;59.922;10.742;2023-05-11T05:02:05;101073.69;;;20.73;26.74
51315;BME280;65787;59.922;10.742;2023-05-11T05:04:31;101061.13;;;20.72;26.99
51315;BME280;65787;59.922;10.742;2023-05-11T05:06:56;101067.94;;;20.86;26.80
51315;BME280;65787;59.922;10.742;2023-05-11T05:09:21;101061.22;;;20.94;26.62
51315;BME280;65787;59.922;10.742;2023-05-11T05:11:47;101050.63;;;20.97;26.44
51315;BME280;65787;59.922;10.742;2023-05-11T05:14:12;101055.34;;;21.02;26.45
51315;BME280;65787;59.922;10.742;2023-05-11T05:16:37;101058.97;;;21.07;26.51
51315;BME280;65787;59.922;10.742;2023-05-11T05:19:03;101062.38;;;21.15;26.55
51315;BME280;65787;59.922;10.742;2023-05-11T05:21:28;101064.75;;;21.28;26.63
51315;BME280;65787;59.922;10.742;2023-05-11T05:23:53;101063.25;;;21.37;26.21
51315;BME280;65787;59.922;10.742;2023-05-11T05:26:19;101072.78;;;21.52;26.19
51315;BME280;65787;59.922;10.742;2023-05-11T05:28:45;101075.34;;;21.58;26.09
51315;BME280;65787;59.922;10.742;2023-05-11T05:31:10;101073.22;;;21.65;25.94
51315;BME280;65787;59.922;10.742;2023-05-11T05:33:36;101076.63;;;21.73;25.92
51315;BME280;65787;59.922;10.742;2023-05-11T05:36:01;101090.28;;;21.73;25.94
51315;BME280;65787;59.922;10.742;2023-05-11T05:38:26;101096.72;;;21.83;25.70
51315;BME280;65787;59.922;10.742;2023-05-11T05:40:52;101098.25;;;21.96;25.61
51315;BME280;65787;59.922;10.742;2023-05-11T05:43:17;101106.47;;;21.96;25.74
51315;BME280;65787;59.922;10.742;2023-05-11T05:45:43;101109.28;;;22.01;25.56
51315;BME280;65787;59.922;10.742;2023-05-11T05:48:08;101113.16;;;22.06;25.33
51315;BME280;65787;59.922;10.742;2023-05-11T05:50:34;101113.72;;;22.08;25.25
51315;BME280;65787;59.922;10.742;2023-05-11T05:53:00;101110.16;;;22.07;25.07
51315;BME280;65787;59.922;10.742;2023-05-11T05:55:25;101109.91;;;22.09;25.22
51315;BME280;65787;59.922;10.742;2023-05-11T05:57:50;101119.75;;;22.10;25.06
51315;BME280;65787;59.922;10.742;2023-05-11T06:00:16;101124.41;;;22.09;25.29
51315;BME280;65787;59.922;10.742;2023-05-11T06:02:41;101125.47;;;22.08;24.92
51315;BME280;65787;59.922;10.742;2023-05-11T06:05:07;101126.56;;;22.07;24.87
51315;BME280;65787;59.922;10.742;2023-05-11T06:07:32;101130.91;;;22.03;25.16
51315;BME280;65787;59.922;10.742;2023-05-11T06:09:58;101126.06;;;22.10;24.79
51315;BME280;65787;59.922;10.742;2023-05-11T06:12:23;101129.94;;;22.14;24.85
51315;BME280;65787;59.922;10.742;2023-05-11T06:14:48;101124.53;;;22.19;24.46
51315;BME280;65787;59.922;10.742;2023-05-11T06:17:13;101130.00;;;22.19;24.66
51315;BME280;65787;59.922;10.742;2023-05-11T06:19:39;101120.56;;;22.27;24.70
51315;BME280;65787;59.922;10.742;2023-05-11T06:22:04;101123.66;;;22.36;24.57
51315;BME280;65787;59.922;10.742;2023-05-11T06:24:30;101128.63;;;22.39;24.49
51315;BME280;65787;59.922;10.742;2023-05-11T06:26:55;101132.13;;;22.34;24.43
51315;BME280;65787;59.922;10.742;2023-05-11T06:29:21;101132.25;;;22.45;24.41
51315;BME280;65787;59.922;10.742;2023-05-11T06:31:46;101140.19;;;22.46;23.90
51315;BME280;65787;59.922;10.742;2023-05-11T06:34:16;101149.75;;;22.44;24.06
51315;BME280;65787;59.922;10.742;2023-05-11T06:36:43;101154.13;;;22.45;24.03
51315;BME280;65787;59.922;10.742;2023-05-11T06:39:08;101154.94;;;22.45;24.00
51315;BME280;65787;59.922;10.742;2023-05-11T06:41:33;101155.84;;;22.51;24.30
51315;BME280;65787;59.922;10.742;2023-05-11T06:43:59;101158.06;;;22.54;23.98
51315;BME280;65787;59.922;10.742;2023-05-11T06:46:24;101161.38;;;22.56;23.95
51315;BME280;65787;59.922;10.742;2023-05-11T06:48:50;101157.25;;;22.53;24.30
51315;BME280;65787;59.922;10.742;2023-05-11T06:51:15;101167.16;;;22.59;24.15
51315;BME280;65787;59.922;10.742;2023-05-11T06:53:40;101165.81;;;22.62;24.16
51315;BME280;65787;59.922;10.742;2023-05-11T06:56:06;101172.44;;;22.66;24.33
51315;BME280;65787;59.922;10.742;2023-05-11T06:58:31;101177.09;;;22.66;24.08
51315;BME280;65787;59.922;10.742;2023-05-11T07:00:57;101175.22;;;22.71;23.90
51315;BME280;65787;59.922;10.742;2023-05-11T07:03:22;101164.59;;;22.75;23.79
51315;BME280;65787;59.922;10.742;2023-05-11T07:05:48;101160.84;;;22.81;23.65
51315;BME280;65787;59.922;10.742;2023-05-11T07:08:13;101166.31;;;22.81;23.87
51315;BME280;65787;59.922;10.742;2023-05-11T07:10:39;101166.41;;;22.91;23.41
51315;BME280;65787;59.922;10.742;2023-05-11T07:13:05;101171.94;;;22.96;23.78
51315;BME280;65787;59.922;10.742;2023-05-11T07:15:30;101172.81;;;23.02;23.47
51315;BME280;65787;59.922;10.742;2023-05-11T07:17:56;101182.25;;;23.11;23.45
51315;BME280;65787;59.922;10.742;2023-05-11T07:20:21;101169.47;;;23.22;23.50
51315;BME280;65787;59.922;10.742;2023-05-11T07:22:46;101178.56;;;23.28;23.69
51315;BME280;65787;59.922;10.742;2023-05-11T07:25:12;101175.00;;;23.32;23.59
51315;BME280;65787;59.922;10.742;2023-05-11T07:27:37;101178.91;;;23.42;23.47
51315;BME280;65787;59.922;10.742;2023-05-11T07:30:03;101190.03;;;23.57;23.42
51315;BME280;65787;59.922;10.742;2023-05-11T07:32:28;101187.91;;;23.69;23.09
51315;BME280;65787;59.922;10.742;2023-05-11T07:34:53;101185.00;;;23.81;22.69
51315;BME280;65787;59.922;10.742;2023-05-11T07:37:18;101187.75;;;23.86;22.51
51315;BME280;65787;59.922;10.742;2023-05-11T07:39:44;101179.09;;;24.00;22.52
51315;BME280;65787;59.922;10.742;2023-05-11T07:42:09;101185.44;;;24.10;22.13
51315;BME280;65787;59.922;10.742;2023-05-11T07:44:34;101182.75;;;24.21;22.49
51315;BME280;65787;59.922;10.742;2023-05-11T07:47:00;101183.06;;;24.29;22.12
51315;BME280;65787;59.922;10.742;2023-05-11T07:49:25;101185.78;;;24.24;22.34
51315;BME280;65787;59.922;10.742;2023-05-11T07:51:51;101192.63;;;24.22;22.49
51315;BME280;65787;59.922;10.742;2023-05-11T07:54:16;101188.72;;;24.12;22.61
51315;BME280;65787;59.922;10.742;2023-05-11T07:56:42;101187.09;;;24.11;22.60
51315;BME280;65787;59.922;10.742;2023-05-11T07:59:07;101185.72;;;24.14;22.27
51315;BME280;65787;59.922;10.742;2023-05-11T08:01:32;101190.97;;;24.21;22.38
51315;BME280;65787;59.922;10.742;2023-05-11T08:03:57;101198.72;;;24.34;22.30
51315;BME280;65787;59.922;10.742;2023-05-11T08:06:23;101199.09;;;24.53;22.51
51315;BME280;65787;59.922;10.742;2023-05-11T08:08:49;101201.38;;;24.77;22.13
51315;BME280;65787;59.922;10.742;2023-05-11T08:11:14;101202.47;;;24.81;21.63
51315;BME280;65787;59.922;10.742;2023-05-11T08:13:40;101199.50;;;24.92;21.72
51315;BME280;65787;59.922;10.742;2023-05-11T08:16:05;101204.44;;;25.01;21.96
51315;BME280;65787;59.922;10.742;2023-05-11T08:18:31;101210.78;;;25.11;21.90
51315;BME280;65787;59.922;10.742;2023-05-11T08:20:56;101201.44;;;25.18;21.59
51315;BME280;65787;59.922;10.742;2023-05-11T08:23:21;101203.66;;;25.36;21.36
51315;BME280;65787;59.922;10.742;2023-05-11T08:25:52;101209.16;;;25.36;21.57
51315;BME280;65787;59.922;10.742;2023-05-11T08:28:18;101206.97;;;25.38;20.95
51315;BME280;65787;59.922;10.742;2023-05-11T08:30:43;101212.22;;;25.45;21.32
51315;BME280;65787;59.922;10.742;2023-05-11T08:33:09;101213.84;;;25.51;21.19
51315;BME280;65787;59.922;10.742;2023-05-11T08:35:34;101213.28;;;25.64;21.30
51315;BME280;65787;59.922;10.742;2023-05-11T08:38:00;101211.34;;;25.75;21.33
51315;BME280;65787;59.922;10.742;2023-05-11T08:40:25;101213.53;;;25.83;21.28
51315;BME280;65787;59.922;10.742;2023-05-11T08:42:52;101216.28;;;25.88;20.97
51315;BME280;65787;59.922;10.742;2023-05-11T08:45:19;101222.06;;;25.92;20.85
51315;BME280;65787;59.922;10.742;2023-05-11T08:47:44;101230.03;;;25.88;20.84
51315;BME280;65787;59.922;10.742;2023-05-11T08:50:11;101225.66;;;25.93;20.92
51315;BME280;65787;59.922;10.742;2023-05-11T08:52:36;101222.88;;;26.08;21.05
51315;BME280;65787;59.922;10.742;2023-05-11T08:55:02;101227.53;;;26.13;20.69
51315;BME280;65787;59.922;10.742;2023-05-11T08:57:28;101226.72;;;26.07;20.53
51315;BME280;65787;59.922;10.742;2023-05-11T08:59:54;101229.47;;;26.12;20.46
51315;BME280;65787;59.922;10.742;2023-05-11T09:02:20;101225.59;;;26.13;20.29
51315;BME280;65787;59.922;10.742;2023-05-11T09:04:45;101220.09;;;26.13;20.53
51315;BME280;65787;59.922;10.742;2023-05-11T09:07:11;101224.22;;;26.16;20.53
51315;BME280;65787;59.922;10.742;2023-05-11T09:09:39;101218.72;;;26.05;20.88
51315;BME280;65787;59.922;10.742;2023-05-11T09:12:06;101223.16;;;26.01;21.14
51315;BME280;65787;59.922;10.742;2023-05-11T09:14:31;101223.69;;;25.98;20.83
51315;BME280;65787;59.922;10.742;2023-05-11T09:16:57;101220.16;;;25.87;20.68
51315;BME280;65787;59.922;10.742;2023-05-11T09:19:22;101221.50;;;25.90;20.41
51315;BME280;65787;59.922;10.742;2023-05-11T09:21:48;101223.16;;;25.91;20.95
51315;BME280;65787;59.922;10.742;2023-05-11T09:24:13;101233.59;;;25.89;20.40
51315;BME280;65787;59.922;10.742;2023-05-11T09:26:38;101235.53;;;25.88;20.63
51315;BME280;65787;59.922;10.742;2023-05-11T09:29:04;101234.72;;;25.88;20.71
51315;BME280;65787;59.922;10.742;2023-05-11T09:31:39;101226.22;;;25.95;20.09
51315;BME280;65787;59.922;10.742;2023-05-11T09:34:11;101235.00;;;25.92;20.48
51315;BME280;65787;59.922;10.742;2023-05-11T09:36:37;101232.50;;;26.05;20.75
51315;BME280;65787;59.922;10.742;2023-05-11T09:39:03;101242.44;;;26.01;20.29
51315;BME280;65787;59.922;10.742;2023-05-11T09:41:29;101230.59;;;26.01;20.49
51315;BME280;65787;59.922;10.742;2023-05-11T09:44:02;101236.66;;;25.87;20.51
51315;BME280;65787;59.922;10.742;2023-05-11T09:46:28;101244.38;;;25.80;20.56
51315;BME280;65787;59.922;10.742;2023-05-11T09:48:59;101244.34;;;25.91;20.38
51315;BME280;65787;59.922;10.742;2023-05-11T09:51:28;101249.88;;;26.01;20.34
51315;BME280;65787;59.922;10.742;2023-05-11T09:53:56;101248.78;;;25.97;20.79
51315;BME280;65787;59.922;10.742;2023-05-11T09:56:21;101255.09;;;25.72;20.82
51315;BME280;65787;59.922;10.742;2023-05-11T10:01:12;101252.88;;;25.68;20.95
51315;BME280;65787;59.922;10.742;2023-05-11T10:03:49;101260.06;;;25.75;21.17
51315;BME280;65787;59.922;10.742;2023-05-11T10:06:15;101261.72;;;25.71;21.12
51315;BME280;65787;59.922;10.742;2023-05-11T10:08:40;101259.78;;;25.66;21.21
51315;BME280;65787;59.922;10.742;2023-05-11T10:11:06;101258.94;;;25.55;21.16
51315;BME280;65787;59.922;10.742;2023-05-11T10:13:32;101262.81;;;25.69;20.90
51315;BME280;65787;59.922;10.742;2023-05-11T10:15:58;101266.09;;;25.72;20.92
51315;BME280;65787;59.922;10.742;2023-05-11T10:18:27;101263.34;;;25.51;20.83
51315;BME280;65787;59.922;10.742;2023-05-11T10:20:52;101265.28;;;25.50;21.21
51315;BME280;65787;59.922;10.742;2023-05-11T10:23:19;101271.03;;;25.39;21.04
51315;BME280;65787;59.922;10.742;2023-05-11T10:25:45;101262.78;;;25.28;21.09
51315;BME280;65787;59.922;10.742;2023-05-11T10:28:11;101269.06;;;25.14;20.71
51315;BME280;65787;59.922;10.742;2023-05-11T10:30:37;101264.66;;;25.18;20.92
51315;BME280;65787;59.922;10.742;2023-05-11T10:33:02;101263.31;;;25.25;20.94
51315;BME280;65787;59.922;10.742;2023-05-11T10:35:30;101267.16;;;25.29;20.85
51315;BME280;65787;59.922;10.742;2023-05-11T10:37:55;101275.16;;;25.36;21.06
51315;BME280;65787;59.922;10.742;2023-05-11T10:40:21;101279.28;;;25.39;20.84
51315;BME280;65787;59.922;10.742;2023-05-11T10:42:56;101280.66;;;25.36;20.85
51315;BME280;65787;59.922;10.742;2023-05-11T10:45:47;101282.84;;;25.29;20.72
51315;BME280;65787;59.922;10.742;2023-05-11T10:51:04;101284.25;;;25.32;20.71
51315;BME280;65787;59.922;10.742;2023-05-11T11:03:59;101302.84;;;25.09;21.22
51315;BME280;65787;59.922;10.742;2023-05-11T11:06:26;101308.63;;;25.07;20.92
51315;BME280;65787;59.922;10.742;2023-05-11T11:08:59;101302.28;;;25.02;21.29
51315;BME280;65787;59.922;10.742;2023-05-11T11:13:57;101298.91;;;24.84;21.09
51315;BME280;65787;59.922;10.742;2023-05-11T11:16:22;101308.00;;;24.90;21.06
51315;BME280;65787;59.922;10.742;2023-05-11T11:18:50;101312.09;;;24.82;20.90
51315;BME280;65787;59.922;10.742;2023-05-11T11:21:37;101318.69;;;24.81;20.98
51315;BME280;65787;59.922;10.742;2023-05-11T11:24:01;101318.75;;;24.97;21.01
51315;BME280;65787;59.922;10.742;2023-05-11T11:26:46;101315.19;;;25.01;21.16
51315;BME280;65787;59.922;10.742;2023-05-11T11:29:12;101314.09;;;25.02;21.18
51315;BME280;65787;59.922;10.742;2023-05-11T11:31:37;101317.66;;;25.03;21.23
51315;BME280;65787;59.922;10.742;2023-05-11T11:39:47;101336.06;;;24.97;21.58
51315;BME280;65787;59.922;10.742;2023-05-11T11:44:37;101325.88;;;24.87;21.57
51315;BME280;65787;59.922;10.742;2023-05-11T11:49:38;101328.38;;;24.99;21.30
51315;BME280;65787;59.922;10.742;2023-05-11T11:52:03;101327.84;;;25.02;21.41
51315;BME280;65787;59.922;10.742;2023-05-11T11:54:40;101329.78;;;25.07;21.55
51315;BME280;65787;59.922;10.742;2023-05-11T11:59:49;101324.78;;;24.93;21.56
51315;BME280;65787;59.922;10.742;2023-05-11T12:02:15;101324.47;;;24.85;21.77
51315;BME280;65787;59.922;10.742;2023-05-11T12:04:44;101324.19;;;24.81;21.92
51315;BME280;65787;59.922;10.742;2023-05-11T12:07:15;101325.06;;;24.92;21.92
51315;BME280;65787;59.922;10.742;2023-05-11T12:09:43;101331.38;;;24.98;21.88
51315;BME280;65787;59.922;10.742;2023-05-11T12:12:09;101336.34;;;25.01;21.57
51315;BME280;65787;59.922;10.742;2023-05-11T12:14:35;101338.81;;;24.97;21.87
51315;BME280;65787;59.922;10.742;2023-05-11T12:17:01;101342.13;;;24.99;21.44
51315;BME280;65787;59.922;10.742;2023-05-11T12:19:27;101340.00;;;25.17;21.28
51315;BME280;65787;59.922;10.742;2023-05-11T12:21:52;101335.66;;;25.26;21.54
51315;BME280;65787;59.922;10.742;2023-05-11T12:24:21;101343.84;;;25.21;21.47
51315;BME280;65787;59.922;10.742;2023-05-11T12:26:46;101339.50;;;25.30;21.75
51315;BME280;65787;59.922;10.742;2023-05-11T12:29:14;101336.47;;;25.37;21.54
51315;BME280;65787;59.922;10.742;2023-05-11T12:31:40;101339.25;;;25.42;21.26
51315;BME280;65787;59.922;10.742;2023-05-11T12:34:06;101337.63;;;25.51;21.24
51315;BME280;65787;59.922;10.742;2023-05-11T12:36:37;101342.88;;;25.58;21.39
51315;BME280;65787;59.922;10.742;2023-05-11T12:39:03;101290.25;;;25.23;21.30
51315;BME280;65787;59.922;10.742;2023-05-11T12:41:28;101339.25;;;25.47;21.70
51315;BME280;65787;59.922;10.742;2023-05-11T12:43:54;101342.84;;;25.37;21.88
51315;BME280;65787;59.922;10.742;2023-05-11T12:46:20;101342.78;;;25.27;21.93
51315;BME280;65787;59.922;10.742;2023-05-11T12:48:46;101343.38;;;25.34;22.10
51315;BME280;65787;59.922;10.742;2023-05-11T12:51:11;101346.69;;;25.41;22.34
51315;BME280;65787;59.922;10.742;2023-05-11T12:53:37;101346.13;;;25.44;22.17
51315;BME280;65787;59.922;10.742;2023-05-11T12:56:03;101349.16;;;25.48;22.12
51315;BME280;65787;59.922;10.742;2023-05-11T12:58:38;101353.03;;;25.47;22.36
51315;BME280;65787;59.922;10.742;2023-05-11T13:01:04;101350.22;;;25.37;22.75
51315;BME280;65787;59.922;10.742;2023-05-11T13:03:31;101350.53;;;25.45;22.48
51315;BME280;65787;59.922;10.742;2023-05-11T13:06:08;101355.47;;;25.38;22.59
51315;BME280;65787;59.922;10.742;2023-05-11T13:08:37;101353.59;;;25.54;22.07
51315;BME280;65787;59.922;10.742;2023-05-11T13:14:13;101363.78;;;25.64;22.05
51315;BME280;65787;59.922;10.742;2023-05-11T13:16:38;101361.28;;;25.78;22.01